createdAt,value
2022-12-25T00:00:12.663Z,19.60
2022-12-25T00:02:46.820Z,18.80
2022-12-25T00:05:15.544Z,21.43
2022-12-25T00:07:44.007Z,22.63
2022-12-25T00:10:12.889Z,19.98
2022-12-25T00:12:41.336Z,26.73
2022-12-25T00:15:10.627Z,19.17
2022-12-25T00:17:39.062Z,24.48
2022-12-25T00:20:10.614Z,20.42
2022-12-25T00:22:39.063Z,18.08
2022-12-25T00:25:07.920Z,20.15
2022-12-25T00:27:37.956Z,21.42
2022-12-25T00:30:07.990Z,20.23
2022-12-25T00:32:37.708Z,21.48
2022-12-25T00:35:08.743Z,21.08
2022-12-25T00:37:37.323Z,20.60
2022-12-25T00:40:06.701Z,18.60
2022-12-25T00:42:35.178Z,25.73
2022-12-25T00:45:05.007Z,22.17
2022-12-25T00:47:33.387Z,23.17
2022-12-25T00:50:02.390Z,24.63
2022-12-25T00:52:32.677Z,20.27
2022-12-25T00:55:01.219Z,24.53
2022-12-25T00:57:29.945Z,20.20
2022-12-25T00:59:58.404Z,23.85
2022-12-25T01:02:27.088Z,21.60
2022-12-25T01:04:57.652Z,20.25
2022-12-25T01:07:28.178Z,22.27
2022-12-25T01:10:15.308Z,22.85
2022-12-25T01:12:45.404Z,20.77
2022-12-25T01:15:14.829Z,25.45
2022-12-25T01:17:43.846Z,20.58
2022-12-25T01:20:14.263Z,21.83
2022-12-25T01:22:42.778Z,19.42
2022-12-25T01:25:14.452Z,19.10
2022-12-25T01:27:43.052Z,21.70
2022-12-25T01:30:12.828Z,19.52
2022-12-25T01:32:41.455Z,20.80
2022-12-25T01:35:10.461Z,19.58
2022-12-25T01:37:39.419Z,17.48
2022-12-25T01:40:09.470Z,25.70
2022-12-25T01:42:39.529Z,20.70
2022-12-25T01:45:40.046Z,23.23
2022-12-25T01:48:14.447Z,19.77
2022-12-25T01:50:46.002Z,22.55
2022-12-25T01:53:15.010Z,20.70
2022-12-25T01:55:46.991Z,19.23
2022-12-25T01:58:17.647Z,21.52
2022-12-25T02:00:46.493Z,18.55
2022-12-25T02:03:15.594Z,21.33
2022-12-25T02:05:44.755Z,21.48
2022-12-25T02:08:15.872Z,19.08
2022-12-25T02:13:15.628Z,20.30
2022-12-25T02:15:53.819Z,18.00
2022-12-25T02:18:35.143Z,19.67
2022-12-25T02:21:31.608Z,19.88
2022-12-25T02:24:20.422Z,19.98
2022-12-25T02:27:10.314Z,17.05
2022-12-25T02:29:49.295Z,22.48
2022-12-25T02:32:24.247Z,18.02
2022-12-25T02:34:58.135Z,17.40
2022-12-25T02:37:32.030Z,20.27
2022-12-25T02:40:08.221Z,19.10
2022-12-25T02:43:02.519Z,18.08
2022-12-25T02:45:53.590Z,19.48
2022-12-25T02:48:42.532Z,19.38
2022-12-25T02:51:32.853Z,18.13
2022-12-25T02:54:22.628Z,13.57
2022-12-25T02:57:25.772Z,14.73
2022-12-25T03:00:15.354Z,15.75
2022-12-25T03:03:06.210Z,18.33
2022-12-25T03:05:56.196Z,13.90
2022-12-25T03:08:32.131Z,16.67
2022-12-25T03:11:22.268Z,13.27
2022-12-25T03:13:54.623Z,15.98
2022-12-25T03:16:41.719Z,11.05
2022-12-25T03:19:25.608Z,15.07
2022-12-25T03:22:10.197Z,12.57
2022-12-25T03:24:56.043Z,13.75
2022-12-25T03:27:25.028Z,15.30
2022-12-25T03:30:11.055Z,16.73
2022-12-25T03:32:44.739Z,14.63
2022-12-25T03:35:23.397Z,10.90
2022-12-25T03:38:17.030Z,13.10
2022-12-25T03:41:15.166Z,14.00
2022-12-25T03:44:09.405Z,12.80
2022-12-25T03:47:03.837Z,10.38
2022-12-25T03:49:56.477Z,8.48
2022-12-25T03:52:46.617Z,9.63
2022-12-25T03:55:35.059Z,11.35
2022-12-25T03:58:21.052Z,7.53
2022-12-25T04:01:06.792Z,12.10
2022-12-25T04:03:53.171Z,12.80
2022-12-25T04:06:39.593Z,13.77
2022-12-25T04:09:30.087Z,10.80
2022-12-25T04:12:26.555Z,8.90
2022-12-25T04:15:24.460Z,8.27
2022-12-25T04:18:14.026Z,9.65
2022-12-25T04:21:11.676Z,7.93
2022-12-25T04:24:01.120Z,7.63
2022-12-25T04:26:49.050Z,9.13
2022-12-25T04:29:37.956Z,9.43
2022-12-25T04:32:26.473Z,10.88
2022-12-25T04:35:15.533Z,11.50
2022-12-25T04:37:44.655Z,7.40
2022-12-25T04:40:15.956Z,6.65
2022-12-25T04:42:53.342Z,6.03
2022-12-25T04:45:22.397Z,8.35
2022-12-25T04:47:54.183Z,6.38
2022-12-25T04:50:25.593Z,8.73
2022-12-25T04:53:01.475Z,10.02
2022-12-25T04:55:32.240Z,6.57
2022-12-25T04:58:03.453Z,7.13
2022-12-25T05:00:42.995Z,5.85
2022-12-25T05:03:12.703Z,8.13
2022-12-25T05:05:42.031Z,10.43
2022-12-25T05:08:14.111Z,5.32
2022-12-25T05:10:43.785Z,10.88
2022-12-25T05:13:14.538Z,8.85
2022-12-25T05:15:48.755Z,7.25
2022-12-25T05:18:17.792Z,7.35
2022-12-25T05:20:53.873Z,5.45
2022-12-25T05:23:23.364Z,5.15
2022-12-25T05:25:52.323Z,5.35
2022-12-25T05:28:22.898Z,9.13
2022-12-25T05:30:51.883Z,9.73
2022-12-25T05:33:20.933Z,5.32
2022-12-25T05:35:52.611Z,6.95
2022-12-25T05:38:21.533Z,7.32
2022-12-25T05:40:52.991Z,8.02
2022-12-25T05:43:27.320Z,4.13
2022-12-25T05:45:56.828Z,7.90
2022-12-25T05:48:28.366Z,6.95
2022-12-25T05:50:57.243Z,6.00
2022-12-25T05:53:27.845Z,8.10
2022-12-25T05:55:56.834Z,7.88
2022-12-25T05:58:27.106Z,5.15
2022-12-25T06:00:56.084Z,6.88
2022-12-25T06:03:25.747Z,4.20
2022-12-25T06:05:55.116Z,6.22
2022-12-25T06:08:26.174Z,5.90
2022-12-25T06:10:55.027Z,4.90
2022-12-25T06:13:23.799Z,4.68
2022-12-25T06:15:54.538Z,8.48
2022-12-25T06:18:23.535Z,5.47
2022-12-25T06:20:52.315Z,5.82
2022-12-25T06:23:21.271Z,6.80
2022-12-25T06:25:49.970Z,6.60
2022-12-25T06:28:18.612Z,5.63
2022-12-25T06:30:47.443Z,4.55
2022-12-25T06:33:17.428Z,5.63
2022-12-25T06:35:46.098Z,8.02
2022-12-25T06:38:14.816Z,4.32
2022-12-25T06:40:43.816Z,9.20
2022-12-25T06:43:12.933Z,4.82
2022-12-25T06:45:42.070Z,7.22
2022-12-25T06:48:10.962Z,6.93
2022-12-25T06:50:45.493Z,11.07
2022-12-25T06:53:16.734Z,4.80
2022-12-25T06:55:45.389Z,6.90
2022-12-25T06:58:18.611Z,9.35
2022-12-25T07:00:50.507Z,7.68
2022-12-25T07:03:23.192Z,6.78
2022-12-25T07:05:53.418Z,6.97
2022-12-25T07:08:22.205Z,8.00
2022-12-25T07:10:53.786Z,4.57
2022-12-25T07:13:22.658Z,8.55
2022-12-25T07:15:57.554Z,9.25
2022-12-25T07:18:30.440Z,10.13
2022-12-25T07:21:00.759Z,9.15
2022-12-25T07:23:30.886Z,9.20
2022-12-25T07:26:01.823Z,5.47
2022-12-25T07:28:30.871Z,9.25
2022-12-25T07:31:06.397Z,8.75
2022-12-25T07:33:35.318Z,9.98
2022-12-25T07:36:05.751Z,12.48
2022-12-25T07:38:34.579Z,10.63
2022-12-25T07:41:03.009Z,11.50
2022-12-25T07:43:31.838Z,20.25
2022-12-25T07:46:01.334Z,7.57
2022-12-25T07:48:30.295Z,10.07
2022-12-25T07:50:59.856Z,4.85
2022-12-25T07:53:30.064Z,7.93
2022-12-25T07:55:59.976Z,6.37
2022-12-25T07:58:28.544Z,6.28
2022-12-25T08:00:57.715Z,3.67
2022-12-25T08:03:26.451Z,5.13
2022-12-25T08:05:55.067Z,9.38
2022-12-25T08:08:23.583Z,5.60
2022-12-25T08:10:53.456Z,9.20
2022-12-25T08:13:22.023Z,5.38
2022-12-25T08:15:50.475Z,7.97
2022-12-25T08:18:21.256Z,8.15
2022-12-25T08:20:51.855Z,9.77
2022-12-25T08:23:20.358Z,9.70
2022-12-25T08:25:48.938Z,7.10
2022-12-25T08:28:18.822Z,6.80
2022-12-25T08:30:47.370Z,7.07
2022-12-25T08:33:15.898Z,4.68
2022-12-25T08:35:44.379Z,6.35
2022-12-25T08:38:12.714Z,7.40
2022-12-25T08:40:41.181Z,7.53
2022-12-25T08:43:09.559Z,11.63
2022-12-25T08:45:39.677Z,8.63
2022-12-25T08:48:08.194Z,13.68
2022-12-25T08:50:36.626Z,38.78
2022-12-25T08:53:05.018Z,23.70
2022-12-25T08:55:33.831Z,15.98
2022-12-25T08:58:02.358Z,17.35
2022-12-25T09:00:30.797Z,5.20
2022-12-25T09:03:00.838Z,6.05
2022-12-25T09:05:29.325Z,4.90
2022-12-25T09:07:57.869Z,11.25
2022-12-25T09:10:26.295Z,4.80
2022-12-25T09:12:54.647Z,6.10
2022-12-25T09:15:23.158Z,5.47
2022-12-25T09:17:51.659Z,4.18
2022-12-25T09:20:21.625Z,8.50
2022-12-25T09:22:50.160Z,6.50
2022-12-25T09:25:18.661Z,10.25
2022-12-25T09:27:47.185Z,9.60
2022-12-25T09:30:15.980Z,7.57
2022-12-25T09:32:44.324Z,9.15
2022-12-25T09:35:14.211Z,6.68
2022-12-25T09:37:44.222Z,7.68
2022-12-25T09:40:16.844Z,9.63
2022-12-25T09:42:45.722Z,4.75
2022-12-25T09:45:19.381Z,10.48
2022-12-25T09:47:50.686Z,10.20
2022-12-25T09:50:24.219Z,6.60
2022-12-25T09:52:57.964Z,8.68
2022-12-25T09:55:31.306Z,5.13
2022-12-25T09:58:02.354Z,5.00
2022-12-25T10:00:37.799Z,6.07
2022-12-25T10:03:22.372Z,6.97
2022-12-25T10:06:04.298Z,4.97
2022-12-25T10:08:53.021Z,7.30
2022-12-25T10:11:35.848Z,8.73
2022-12-25T10:14:17.484Z,11.02
2022-12-25T10:16:51.740Z,9.40
2022-12-25T10:19:33.153Z,7.53
2022-12-25T10:22:05.311Z,3.88
2022-12-25T10:24:39.668Z,6.00
2022-12-25T10:27:18.731Z,5.70
2022-12-25T10:29:51.418Z,6.47
2022-12-25T10:32:19.939Z,4.85
2022-12-25T10:34:48.621Z,4.57
2022-12-25T10:37:18.281Z,7.95
2022-12-25T10:39:48.130Z,6.18
2022-12-25T10:42:40.744Z,4.95
2022-12-25T10:45:11.021Z,8.02
2022-12-25T10:47:42.844Z,14.10
2022-12-25T10:50:14.120Z,8.73
2022-12-25T10:55:28.203Z,7.63
2022-12-25T10:57:58.921Z,5.30
2022-12-25T11:00:30.000Z,6.85
2022-12-25T11:02:59.398Z,8.30
2022-12-25T11:05:30.515Z,6.15
2022-12-25T11:08:00.986Z,8.55
2022-12-25T11:10:33.418Z,10.57
2022-12-25T11:13:03.424Z,9.40
2022-12-25T11:15:39.892Z,6.53
2022-12-25T11:18:21.250Z,8.43
2022-12-25T11:20:51.223Z,7.20
2022-12-25T11:23:20.994Z,7.00
2022-12-25T11:25:58.624Z,7.35
2022-12-25T11:28:29.381Z,5.40
2022-12-25T11:31:02.187Z,9.10
2022-12-25T11:33:36.160Z,7.03
2022-12-25T11:36:14.261Z,7.70
2022-12-25T11:38:42.708Z,5.15
2022-12-25T11:41:15.058Z,13.15
2022-12-25T11:43:50.925Z,8.68
2022-12-25T11:46:24.315Z,2.90
2022-12-25T11:48:57.572Z,6.22
2022-12-25T11:51:30.696Z,5.43
2022-12-25T11:54:05.422Z,4.50
2022-12-25T11:56:35.697Z,8.88
2022-12-25T11:59:14.957Z,3.67
2022-12-25T12:01:50.444Z,4.13
2022-12-25T12:04:30.024Z,8.10
2022-12-25T12:07:06.377Z,4.07
2022-12-25T12:09:43.639Z,5.03
2022-12-25T12:12:21.358Z,5.90
2022-12-25T12:14:57.305Z,5.60
2022-12-25T12:17:25.841Z,4.40
2022-12-25T12:19:54.279Z,4.57
2022-12-25T12:22:25.362Z,5.65
2022-12-25T12:27:31.223Z,5.28
2022-12-25T12:30:01.295Z,3.80
2022-12-25T12:32:38.088Z,5.22
2022-12-25T12:35:10.777Z,6.18
2022-12-25T12:37:41.897Z,6.70
2022-12-25T12:40:35.120Z,3.90
2022-12-25T12:43:06.749Z,5.40
2022-12-25T12:45:37.966Z,5.25
2022-12-25T12:48:16.701Z,4.97
2022-12-25T12:50:45.163Z,3.72
2022-12-25T12:53:32.950Z,4.03
2022-12-25T12:56:16.955Z,5.80
2022-12-25T12:58:50.939Z,5.20
2022-12-25T13:01:46.318Z,4.55
2022-12-25T13:04:35.361Z,7.70
2022-12-25T13:07:13.185Z,1.70
2022-12-25T13:09:57.878Z,4.57
2022-12-25T13:12:26.979Z,3.22
2022-12-25T13:14:57.090Z,3.55
2022-12-25T13:17:27.664Z,8.40
2022-12-25T13:19:58.880Z,4.30
2022-12-25T13:22:33.412Z,4.05
2022-12-25T13:25:05.852Z,5.03
2022-12-25T13:27:35.418Z,27.10
2022-12-25T13:30:16.120Z,6.10
2022-12-25T13:32:46.147Z,6.15
2022-12-25T13:35:15.809Z,5.78
2022-12-25T13:37:45.767Z,5.03
2022-12-25T13:40:22.682Z,3.60
2022-12-25T13:42:52.797Z,3.53
2022-12-25T13:45:25.180Z,3.75
2022-12-25T13:47:55.786Z,2.63
2022-12-25T13:50:27.808Z,3.03
2022-12-25T13:52:58.381Z,6.95
2022-12-25T13:55:28.494Z,3.60
2022-12-25T13:57:59.365Z,3.67
2022-12-25T14:00:35.059Z,2.38
2022-12-25T14:03:04.874Z,4.80
2022-12-25T14:05:42.218Z,4.78
2022-12-25T14:08:17.066Z,2.40
2022-12-25T14:10:49.682Z,3.85
2022-12-25T14:13:21.316Z,4.22
2022-12-25T14:18:22.023Z,1.90
2022-12-25T14:21:01.108Z,4.88
2022-12-25T14:23:34.297Z,5.22
2022-12-25T14:26:02.861Z,2.20
2022-12-25T14:28:34.719Z,3.60
2022-12-25T14:31:05.698Z,5.35
2022-12-25T14:36:06.819Z,4.25
2022-12-25T14:38:36.180Z,8.80
2022-12-25T14:41:07.804Z,7.47
2022-12-25T14:43:36.758Z,10.73
2022-12-25T14:46:07.592Z,7.40
2022-12-25T14:48:36.141Z,10.48
2022-12-25T14:51:08.165Z,6.60
2022-12-25T14:53:41.023Z,7.38
2022-12-25T14:56:10.509Z,5.80
2022-12-25T14:58:43.301Z,6.25
2022-12-25T15:01:23.078Z,4.63
2022-12-25T15:03:51.835Z,5.30
2022-12-25T15:06:25.066Z,6.57
2022-12-25T15:08:58.343Z,5.68
2022-12-25T15:11:27.230Z,3.22
2022-12-25T15:13:55.759Z,7.30
2022-12-25T15:16:28.161Z,2.97
2022-12-25T15:18:56.962Z,5.97
2022-12-25T15:21:28.919Z,6.00
2022-12-25T15:23:59.447Z,5.28
2022-12-25T15:26:29.035Z,8.68
2022-12-25T15:28:57.622Z,8.55
2022-12-25T15:31:29.863Z,9.65
2022-12-25T15:33:59.983Z,12.80
2022-12-25T15:36:29.341Z,12.57
2022-12-25T15:38:58.377Z,12.32
2022-12-25T15:41:46.928Z,13.95
2022-12-25T15:44:16.221Z,16.00
2022-12-25T15:46:46.669Z,16.67
2022-12-25T15:49:16.417Z,10.80
2022-12-25T15:51:45.776Z,8.90
2022-12-25T15:54:14.502Z,8.90
2022-12-25T15:56:45.997Z,3.90
2022-12-25T15:59:16.463Z,11.15
2022-12-25T16:01:50.602Z,7.15
2022-12-25T16:04:19.407Z,9.93
2022-12-25T16:06:48.307Z,15.60
2022-12-25T16:09:18.119Z,14.00
2022-12-25T16:11:46.522Z,9.32
2022-12-25T16:14:15.157Z,11.95
2022-12-25T16:16:43.821Z,50.92
2022-12-25T16:19:13.948Z,264.73
2022-12-25T16:21:44.963Z,252.43
2022-12-25T16:26:42.297Z,89.28
2022-12-25T16:29:11.111Z,98.95
2022-12-25T16:31:40.687Z,80.15
2022-12-25T16:34:09.788Z,110.90
2022-12-25T16:36:40.261Z,115.57
2022-12-25T16:39:08.954Z,88.90
2022-12-25T16:41:37.480Z,64.68
2022-12-25T16:44:10.344Z,38.13
2022-12-25T16:46:40.932Z,26.40
2022-12-25T16:49:09.960Z,27.05
2022-12-25T16:51:39.921Z,27.40
2022-12-25T16:54:08.448Z,22.07
2022-12-25T16:56:38.787Z,19.17
2022-12-25T16:59:07.320Z,40.85
2022-12-25T17:01:36.097Z,83.88
2022-12-25T17:04:05.416Z,47.53
2022-12-25T17:06:33.883Z,81.97
2022-12-25T17:09:04.957Z,29.23
2022-12-25T17:14:03.861Z,37.40
2022-12-25T17:16:34.921Z,18.08
2022-12-25T17:19:05.608Z,17.15
2022-12-25T17:21:34.475Z,27.77
2022-12-25T17:24:04.683Z,31.00
2022-12-25T17:26:33.772Z,41.40
2022-12-25T17:29:02.625Z,24.65
2022-12-25T17:31:31.319Z,22.30
2022-12-25T17:34:02.156Z,21.10
2022-12-25T17:36:31.179Z,36.05
2022-12-25T17:39:00.985Z,23.95
2022-12-25T17:41:31.077Z,15.07
2022-12-25T17:43:59.517Z,22.40
2022-12-25T17:46:29.660Z,14.52
2022-12-25T17:49:01.348Z,19.35
2022-12-25T17:51:31.936Z,15.63
2022-12-25T17:54:03.455Z,6.75
2022-12-25T17:56:34.621Z,9.93
2022-12-25T17:59:06.973Z,13.15
2022-12-25T18:01:37.853Z,10.05
2022-12-25T18:06:37.277Z,13.43
2022-12-25T18:09:07.396Z,11.50
2022-12-25T18:11:40.078Z,17.30
2022-12-25T18:14:11.136Z,9.07
2022-12-25T18:16:42.217Z,14.80
2022-12-25T18:19:11.300Z,7.50
2022-12-25T18:21:39.752Z,5.90
2022-12-25T18:24:09.777Z,5.85
2022-12-25T18:26:39.818Z,7.25
2022-12-25T18:29:08.283Z,6.63
2022-12-25T18:31:37.238Z,3.33
2022-12-25T18:34:05.978Z,10.43
2022-12-25T18:36:34.523Z,4.45
2022-12-25T18:39:03.040Z,6.63
2022-12-25T18:41:31.582Z,7.03
2022-12-25T18:44:02.622Z,7.50
2022-12-25T18:48:59.523Z,10.20
2022-12-25T18:51:34.947Z,8.40
2022-12-25T18:54:05.768Z,5.18
2022-12-25T18:56:34.413Z,6.13
2022-12-25T18:59:04.459Z,5.95
2022-12-25T19:01:32.926Z,9.73
2022-12-25T19:04:05.597Z,9.40
2022-12-25T19:06:34.925Z,8.02
2022-12-25T19:09:09.545Z,5.97
2022-12-25T19:11:45.618Z,4.05
2022-12-25T19:14:16.840Z,9.30
2022-12-25T19:16:45.279Z,7.40
2022-12-25T19:19:14.299Z,7.97
2022-12-25T19:21:42.898Z,7.50
2022-12-25T19:24:11.357Z,6.43
2022-12-25T19:26:39.820Z,6.05
2022-12-25T19:29:08.391Z,7.05
2022-12-25T19:31:38.462Z,5.65
2022-12-25T19:34:07.082Z,7.63
2022-12-25T19:36:35.955Z,5.47
2022-12-25T19:39:05.762Z,9.23
2022-12-25T19:41:34.585Z,7.32
2022-12-25T19:44:04.000Z,10.38
2022-12-25T19:46:34.641Z,8.00
2022-12-25T19:49:05.232Z,7.15
2022-12-25T19:51:35.561Z,9.55
2022-12-25T19:54:04.819Z,5.80
2022-12-25T19:56:34.383Z,8.05
2022-12-25T19:59:02.834Z,5.45
2022-12-25T20:01:32.086Z,5.78
2022-12-25T20:04:00.612Z,5.65
2022-12-25T20:06:32.082Z,10.35
2022-12-25T20:09:02.637Z,7.22
2022-12-25T20:11:32.916Z,9.57
2022-12-25T20:14:01.595Z,5.77
2022-12-25T20:16:30.410Z,6.43
2022-12-25T20:18:59.111Z,9.68
2022-12-25T20:21:30.168Z,9.07
2022-12-25T20:26:30.420Z,6.45
2022-12-25T20:28:59.764Z,8.98
2022-12-25T20:31:30.666Z,6.90
2022-12-25T20:34:01.324Z,9.95
2022-12-25T20:36:36.451Z,7.93
2022-12-25T20:39:10.154Z,7.80
2022-12-25T20:41:40.507Z,11.73
2022-12-25T20:44:10.468Z,8.73
2022-12-25T20:46:39.249Z,9.80
2022-12-25T20:49:07.755Z,9.30
2022-12-25T20:51:36.523Z,9.95
2022-12-25T20:54:09.757Z,8.32
2022-12-25T20:56:40.467Z,10.93
2022-12-25T20:59:11.718Z,14.57
2022-12-25T21:01:42.669Z,9.65
2022-12-25T21:04:16.050Z,9.73
2022-12-25T21:06:45.057Z,8.55
2022-12-25T21:09:14.964Z,8.27
2022-12-25T21:11:43.438Z,11.40
2022-12-25T21:14:12.210Z,11.00
2022-12-25T21:16:40.740Z,8.20
2022-12-25T21:19:09.180Z,9.25
2022-12-25T21:21:42.898Z,9.55
2022-12-25T21:24:11.740Z,6.32
2022-12-25T21:26:47.680Z,6.10
2022-12-25T21:29:18.028Z,10.35
2022-12-25T21:32:04.071Z,7.50
2022-12-25T21:34:32.481Z,7.72
2022-12-25T21:37:01.899Z,7.10
2022-12-25T21:39:30.503Z,7.70
2022-12-25T21:42:00.741Z,10.38
2022-12-25T21:44:29.181Z,7.65
2022-12-25T21:46:57.598Z,5.80
2022-12-25T21:49:43.738Z,7.13
2022-12-25T21:52:12.333Z,8.07
2022-12-25T21:54:40.701Z,7.90
2022-12-25T21:57:10.584Z,5.55
2022-12-25T21:59:39.058Z,6.00
2022-12-25T22:02:11.658Z,8.38
2022-12-25T22:04:40.644Z,6.45
2022-12-25T22:07:18.929Z,9.90
2022-12-25T22:09:48.846Z,7.18
2022-12-25T22:12:37.900Z,7.50
2022-12-25T22:15:09.922Z,4.18
2022-12-25T22:17:57.512Z,6.05
2022-12-25T22:20:30.237Z,4.93
2022-12-25T22:22:59.123Z,6.57
2022-12-25T22:25:27.970Z,7.72
2022-12-25T22:27:57.888Z,5.75
2022-12-25T22:30:28.507Z,7.57
2022-12-25T22:32:57.484Z,7.70
2022-12-25T22:35:26.426Z,6.18
2022-12-25T22:37:55.317Z,5.80
2022-12-25T22:40:23.813Z,4.80
2022-12-25T22:42:55.204Z,7.10
2022-12-25T22:45:25.348Z,7.05
2022-12-25T22:47:53.716Z,6.22
2022-12-25T22:50:22.367Z,5.82
2022-12-25T22:52:50.896Z,7.72
2022-12-25T22:55:20.356Z,5.15
2022-12-25T22:57:49.168Z,5.70
2022-12-25T23:00:17.741Z,8.65
2022-12-25T23:02:48.050Z,5.38
2022-12-25T23:05:16.843Z,5.18
2022-12-25T23:07:45.302Z,8.00
2022-12-25T23:10:13.813Z,8.25
2022-12-25T23:13:00.120Z,10.13
2022-12-25T23:15:29.172Z,7.35
2022-12-25T23:18:16.390Z,5.53
2022-12-25T23:21:02.615Z,8.07
2022-12-25T23:23:48.430Z,7.22
2022-12-25T23:26:17.590Z,4.97
2022-12-25T23:29:03.183Z,8.82
2022-12-25T23:31:34.020Z,5.28
2022-12-25T23:34:05.491Z,5.90
2022-12-25T23:36:34.356Z,9.45
2022-12-25T23:39:09.102Z,6.82
2022-12-25T23:41:39.452Z,6.22
2022-12-25T23:44:08.302Z,5.43
2022-12-25T23:46:37.366Z,6.30
2022-12-25T23:49:08.152Z,4.70
2022-12-25T23:51:36.824Z,8.30
2022-12-25T23:54:05.629Z,5.07
2022-12-25T23:56:34.562Z,7.68
2022-12-25T23:59:05.050Z,5.97
